sensor_id;sensor_type;location;lat;lon;timestamp;pressure;altitude;pressure_sealevel;temperature;humidity
78317;BME280;67572;50.930;18.276;2023-07-29T00:01:19;98424.13;;;17.46;81.50
78317;BME280;67572;50.930;18.276;2023-07-29T00:04:22;98433.16;;;17.45;81.24
78317;BME280;67572;50.930;18.276;2023-07-29T00:07:26;98431.50;;;17.52;80.77
78317;BME280;67572;50.930;18.276;2023-07-29T00:10:31;98432.00;;;17.56;80.62
78317;BME280;67572;50.930;18.276;2023-07-29T00:13:35;98437.03;;;17.59;80.40
78317;BME280;67572;50.930;18.276;2023-07-29T00:16:40;98436.22;;;17.66;80.02
78317;BME280;67572;50.930;18.276;2023-07-29T00:19:44;98440.91;;;17.64;80.05
78317;BME280;67572;50.930;18.276;2023-07-29T00:22:48;98440.06;;;17.56;80.61
78317;BME280;67572;50.930;18.276;2023-07-29T00:25:52;98442.75;;;17.39;81.33
78317;BME280;67572;50.930;18.276;2023-07-29T00:28:55;98438.03;;;17.33;82.12
78317;BME280;67572;50.930;18.276;2023-07-29T00:32:00;98434.28;;;17.18;82.63
78317;BME280;67572;50.930;18.276;2023-07-29T00:35:04;98428.59;;;17.21;82.54
78317;BME280;67572;50.930;18.276;2023-07-29T00:38:08;98428.41;;;17.23;82.50
78317;BME280;67572;50.930;18.276;2023-07-29T00:41:12;98429.94;;;17.17;82.69
78317;BME280;67572;50.930;18.276;2023-07-29T00:44:16;98426.06;;;17.11;82.49
78317;BME280;67572;50.930;18.276;2023-07-29T00:47:22;98427.03;;;17.02;82.98
78317;BME280;67572;50.930;18.276;2023-07-29T00:50:27;98424.66;;;16.99;82.83
78317;BME280;67572;50.930;18.276;2023-07-29T00:53:34;98428.53;;;17.05;82.96
78317;BME280;67572;50.930;18.276;2023-07-29T00:56:38;98439.56;;;16.85;83.43
78317;BME280;67572;50.930;18.276;2023-07-29T00:59:41;98439.56;;;16.85;84.35
78317;BME280;67572;50.930;18.276;2023-07-29T01:02:47;98443.56;;;16.81;84.57
78317;BME280;67572;50.930;18.276;2023-07-29T01:06:01;98443.13;;;16.94;84.50
78317;BME280;67572;50.930;18.276;2023-07-29T01:09:16;98443.94;;;16.86;84.30
78317;BME280;67572;50.930;18.276;2023-07-29T01:12:27;98443.94;;;16.86;83.81
78317;BME280;67572;50.930;18.276;2023-07-29T01:15:40;98437.97;;;17.09;83.68
78317;BME280;67572;50.930;18.276;2023-07-29T01:18:50;98440.16;;;17.13;82.40
78317;BME280;67572;50.930;18.276;2023-07-29T01:21:56;98436.34;;;17.24;81.39
78317;BME280;67572;50.930;18.276;2023-07-29T01:25:01;98432.44;;;17.10;81.90
78317;BME280;67572;50.930;18.276;2023-07-29T01:28:05;98437.88;;;17.43;80.57
78317;BME280;67572;50.930;18.276;2023-07-29T01:31:18;98433.44;;;17.09;81.04
78317;BME280;67572;50.930;18.276;2023-07-29T01:34:28;98431.72;;;17.00;80.96
78317;BME280;67572;50.930;18.276;2023-07-29T01:37:35;98436.84;;;16.51;80.73
78317;BME280;67572;50.930;18.276;2023-07-29T01:40:43;98435.56;;;16.03;80.82
78317;BME280;67572;50.930;18.276;2023-07-29T01:43:47;98429.72;;;16.08;80.50
78317;BME280;67572;50.930;18.276;2023-07-29T01:46:51;98430.13;;;15.95;81.45
78317;BME280;67572;50.930;18.276;2023-07-29T01:49:55;98435.00;;;16.00;81.02
78317;BME280;67572;50.930;18.276;2023-07-29T01:52:59;98432.59;;;15.71;82.27
78317;BME280;67572;50.930;18.276;2023-07-29T01:56:04;98444.38;;;15.60;85.68
78317;BME280;67572;50.930;18.276;2023-07-29T01:59:10;98440.09;;;15.85;88.02
78317;BME280;67572;50.930;18.276;2023-07-29T02:02:15;98446.69;;;15.91;88.48
78317;BME280;67572;50.930;18.276;2023-07-29T02:05:19;98450.03;;;15.93;88.53
78317;BME280;67572;50.930;18.276;2023-07-29T02:08:23;98453.44;;;15.95;89.26
78317;BME280;67572;50.930;18.276;2023-07-29T02:11:29;98451.53;;;15.87;89.23
78317;BME280;67572;50.930;18.276;2023-07-29T02:14:32;98454.41;;;15.94;89.32
78317;BME280;67572;50.930;18.276;2023-07-29T02:17:36;98442.25;;;15.81;89.27
78317;BME280;67572;50.930;18.276;2023-07-29T02:20:40;98448.25;;;16.01;89.54
78317;BME280;67572;50.930;18.276;2023-07-29T02:23:51;98446.69;;;16.17;88.89
78317;BME280;67572;50.930;18.276;2023-07-29T02:26:56;98449.53;;;16.15;89.18
78317;BME280;67572;50.930;18.276;2023-07-29T02:30:00;98452.03;;;16.34;88.60
78317;BME280;67572;50.930;18.276;2023-07-29T02:33:03;98443.75;;;16.28;88.67
78317;BME280;67572;50.930;18.276;2023-07-29T02:36:07;98451.81;;;16.28;88.49
78317;BME280;67572;50.930;18.276;2023-07-29T02:39:11;98453.53;;;16.11;89.01
78317;BME280;67572;50.930;18.276;2023-07-29T02:42:16;98455.97;;;16.22;88.97
78317;BME280;67572;50.930;18.276;2023-07-29T02:45:19;98460.31;;;16.23;89.46
78317;BME280;67572;50.930;18.276;2023-07-29T02:48:25;98450.75;;;16.21;89.68
78317;BME280;67572;50.930;18.276;2023-07-29T02:51:28;98454.50;;;16.28;89.55
78317;BME280;67572;50.930;18.276;2023-07-29T02:54:33;98454.72;;;16.34;89.15
78317;BME280;67572;50.930;18.276;2023-07-29T02:57:42;98455.59;;;16.17;89.04
78317;BME280;67572;50.930;18.276;2023-07-29T03:00:49;98458.84;;;16.03;88.92
78317;BME280;67572;50.930;18.276;2023-07-29T03:03:53;98458.03;;;15.85;89.01
78317;BME280;67572;50.930;18.276;2023-07-29T03:06:58;98456.31;;;16.01;88.39
78317;BME280;67572;50.930;18.276;2023-07-29T03:10:05;98458.41;;;16.33;87.74
78317;BME280;67572;50.930;18.276;2023-07-29T03:13:14;98454.06;;;16.41;85.75
78317;BME280;67572;50.930;18.276;2023-07-29T03:16:20;98450.75;;;16.21;84.50
78317;BME280;67572;50.930;18.276;2023-07-29T03:19:28;98457.22;;;16.36;85.63
78317;BME280;67572;50.930;18.276;2023-07-29T03:22:36;98457.72;;;16.40;83.51
78317;BME280;67572;50.930;18.276;2023-07-29T03:25:40;98455.22;;;16.12;82.90
78317;BME280;67572;50.930;18.276;2023-07-29T03:28:46;98464.06;;;16.30;82.89
78317;BME280;67572;50.930;18.276;2023-07-29T03:31:49;98460.47;;;15.96;83.52
78317;BME280;67572;50.930;18.276;2023-07-29T03:34:53;98460.09;;;15.91;84.09
78317;BME280;67572;50.930;18.276;2023-07-29T03:37:57;98462.50;;;16.02;85.12
78317;BME280;67572;50.930;18.276;2023-07-29T03:41:00;98467.44;;;15.89;83.26
78317;BME280;67572;50.930;18.276;2023-07-29T03:44:06;98467.59;;;15.69;82.71
78317;BME280;67572;50.930;18.276;2023-07-29T03:47:10;98456.66;;;15.80;82.73
78317;BME280;67572;50.930;18.276;2023-07-29T03:50:16;98466.44;;;15.90;81.94
78317;BME280;67572;50.930;18.276;2023-07-29T03:53:20;98471.03;;;15.97;82.09
78317;BME280;67572;50.930;18.276;2023-07-29T03:56:23;98474.22;;;16.01;83.54
78317;BME280;67572;50.930;18.276;2023-07-29T03:59:28;98468.69;;;16.20;85.59
78317;BME280;67572;50.930;18.276;2023-07-29T04:02:32;98472.69;;;16.42;86.07
78317;BME280;67572;50.930;18.276;2023-07-29T04:05:36;98476.25;;;16.51;86.06
78317;BME280;67572;50.930;18.276;2023-07-29T04:08:40;98471.63;;;16.61;86.23
78317;BME280;67572;50.930;18.276;2023-07-29T04:11:44;98479.88;;;16.68;86.27
78317;BME280;67572;50.930;18.276;2023-07-29T04:14:51;98486.03;;;16.60;87.01
78317;BME280;67572;50.930;18.276;2023-07-29T04:17:57;98473.50;;;16.69;87.12
78317;BME280;67572;50.930;18.276;2023-07-29T04:21:01;98481.66;;;16.85;86.57
78317;BME280;67572;50.930;18.276;2023-07-29T04:24:04;98489.63;;;16.95;86.27
78317;BME280;67572;50.930;18.276;2023-07-29T04:27:08;98484.78;;;17.06;86.03
78317;BME280;67572;50.930;18.276;2023-07-29T04:30:13;98473.25;;;17.22;84.98
78317;BME280;67572;50.930;18.276;2023-07-29T04:33:17;98485.34;;;17.26;85.17
78317;BME280;67572;50.930;18.276;2023-07-29T04:36:20;98493.78;;;17.31;85.52
78317;BME280;67572;50.930;18.276;2023-07-29T04:39:24;98494.13;;;17.36;84.47
78317;BME280;67572;50.930;18.276;2023-07-29T04:42:30;98494.63;;;17.40;84.53
78317;BME280;67572;50.930;18.276;2023-07-29T04:45:35;98499.81;;;17.33;84.98
78317;BME280;67572;50.930;18.276;2023-07-29T04:48:41;98495.44;;;17.24;85.49
78317;BME280;67572;50.930;18.276;2023-07-29T04:51:46;98499.28;;;17.22;85.17
78317;BME280;67572;50.930;18.276;2023-07-29T04:54:50;98501.00;;;17.31;84.48
78317;BME280;67572;50.930;18.276;2023-07-29T04:57:54;98501.00;;;17.31;84.56
78317;BME280;67572;50.930;18.276;2023-07-29T05:00:59;98502.16;;;17.28;85.14
78317;BME280;67572;50.930;18.276;2023-07-29T05:04:03;98502.50;;;17.33;84.73
78317;BME280;67572;50.930;18.276;2023-07-29T05:07:06;98497.53;;;17.46;83.96
78317;BME280;67572;50.930;18.276;2023-07-29T05:10:10;98500.41;;;17.61;83.41
78317;BME280;67572;50.930;18.276;2023-07-29T05:13:14;98505.66;;;17.79;82.97
78317;BME280;67572;50.930;18.276;2023-07-29T05:16:19;98503.34;;;18.00;83.29
78317;BME280;67572;50.930;18.276;2023-07-29T05:19:23;98498.97;;;18.08;82.41
78317;BME280;67572;50.930;18.276;2023-07-29T05:22:27;98503.50;;;18.15;81.89
78317;BME280;67572;50.930;18.276;2023-07-29T05:25:31;98497.75;;;18.26;80.94
78317;BME280;67572;50.930;18.276;2023-07-29T05:28:36;98498.28;;;18.38;81.04
78317;BME280;67572;50.930;18.276;2023-07-29T05:31:41;98497.91;;;18.41;80.59
78317;BME280;67572;50.930;18.276;2023-07-29T05:34:45;98498.41;;;18.53;80.16
78317;BME280;67572;50.930;18.276;2023-07-29T05:37:48;98511.34;;;18.57;79.88
78317;BME280;67572;50.930;18.276;2023-07-29T05:40:54;98509.00;;;18.71;79.57
78317;BME280;67572;50.930;18.276;2023-07-29T05:43:58;98510.50;;;18.73;78.89
78317;BME280;67572;50.930;18.276;2023-07-29T05:47:03;98514.38;;;18.79;79.28
78317;BME280;67572;50.930;18.276;2023-07-29T05:50:08;98508.59;;;18.98;78.97
78317;BME280;67572;50.930;18.276;2023-07-29T05:53:12;98511.88;;;19.17;78.93
78317;BME280;67572;50.930;18.276;2023-07-29T05:56:15;98521.75;;;19.32;78.82
78317;BME280;67572;50.930;18.276;2023-07-29T05:59:19;98526.63;;;19.37;78.38
78317;BME280;67572;50.930;18.276;2023-07-29T06:02:26;98516.94;;;19.51;77.90
78317;BME280;67572;50.930;18.276;2023-07-29T06:05:29;98524.72;;;19.77;77.27
78317;BME280;67572;50.930;18.276;2023-07-29T06:08:33;98522.69;;;20.02;76.36
78317;BME280;67572;50.930;18.276;2023-07-29T06:11:37;98533.50;;;20.02;76.25
78317;BME280;67572;50.930;18.276;2023-07-29T06:14:42;98531.09;;;20.07;75.58
78317;BME280;67572;50.930;18.276;2023-07-29T06:17:47;98528.38;;;20.53;73.99
78317;BME280;67572;50.930;18.276;2023-07-29T06:20:50;98523.91;;;20.60;73.37
78317;BME280;67572;50.930;18.276;2023-07-29T06:23:54;98527.66;;;20.59;73.84
78317;BME280;67572;50.930;18.276;2023-07-29T06:26:58;98527.75;;;20.65;73.69
78317;BME280;67572;50.930;18.276;2023-07-29T06:30:01;98526.75;;;20.81;73.43
78317;BME280;67572;50.930;18.276;2023-07-29T06:33:06;98528.97;;;20.77;73.13
78317;BME280;67572;50.930;18.276;2023-07-29T06:36:11;98530.59;;;21.01;73.21
78317;BME280;67572;50.930;18.276;2023-07-29T06:39:15;98529.56;;;21.17;72.40
78317;BME280;67572;50.930;18.276;2023-07-29T06:42:18;98537.91;;;21.52;71.13
78317;BME280;67572;50.930;18.276;2023-07-29T06:45:23;98538.53;;;21.69;70.77
78317;BME280;67572;50.930;18.276;2023-07-29T06:48:27;98539.63;;;21.74;69.60
78317;BME280;67572;50.930;18.276;2023-07-29T06:51:31;98544.16;;;21.88;68.41
78317;BME280;67572;50.930;18.276;2023-07-29T06:54:36;98540.13;;;21.99;68.58
78317;BME280;67572;50.930;18.276;2023-07-29T06:57:40;98540.13;;;22.42;66.69
78317;BME280;67572;50.930;18.276;2023-07-29T07:00:44;98543.31;;;22.24;67.09
78317;BME280;67572;50.930;18.276;2023-07-29T07:03:48;98537.47;;;22.49;66.45
78317;BME280;67572;50.930;18.276;2023-07-29T07:06:52;98537.00;;;22.66;66.10
78317;BME280;67572;50.930;18.276;2023-07-29T07:09:56;98533.06;;;22.69;66.40
78317;BME280;67572;50.930;18.276;2023-07-29T07:13:02;98526.88;;;22.75;64.98
78317;BME280;67572;50.930;18.276;2023-07-29T07:16:06;98527.91;;;22.81;64.12
78317;BME280;67572;50.930;18.276;2023-07-29T07:19:11;98532.47;;;23.02;62.30
78317;BME280;67572;50.930;18.276;2023-07-29T07:22:16;98527.91;;;23.43;61.01
78317;BME280;67572;50.930;18.276;2023-07-29T07:25:19;98524.75;;;22.98;60.72
78317;BME280;67572;50.930;18.276;2023-07-29T07:28:23;98528.56;;;23.11;60.95
78317;BME280;67572;50.930;18.276;2023-07-29T07:31:27;98527.63;;;23.32;60.52
78317;BME280;67572;50.930;18.276;2023-07-29T07:34:32;98530.19;;;23.46;59.15
78317;BME280;67572;50.930;18.276;2023-07-29T07:37:38;98533.63;;;23.62;59.87
78317;BME280;67572;50.930;18.276;2023-07-29T07:40:41;98526.06;;;23.50;59.73
78317;BME280;67572;50.930;18.276;2023-07-29T07:43:45;98537.19;;;23.62;60.21
78317;BME280;67572;50.930;18.276;2023-07-29T07:46:49;98537.63;;;23.66;57.71
78317;BME280;67572;50.930;18.276;2023-07-29T07:49:54;98526.03;;;23.44;59.21
78317;BME280;67572;50.930;18.276;2023-07-29T07:52:58;98524.06;;;23.79;58.50
78317;BME280;67572;50.930;18.276;2023-07-29T07:56:01;98525.56;;;23.82;57.97
78317;BME280;67572;50.930;18.276;2023-07-29T07:59:05;98520.81;;;23.49;58.66
78317;BME280;67572;50.930;18.276;2023-07-29T08:02:08;98511.81;;;23.96;57.61
78317;BME280;67572;50.930;18.276;2023-07-29T08:05:13;98510.72;;;23.77;59.37
78317;BME280;67572;50.930;18.276;2023-07-29T08:08:17;98511.00;;;24.22;59.02
78317;BME280;67572;50.930;18.276;2023-07-29T08:11:21;98503.91;;;24.54;58.04
78317;BME280;67572;50.930;18.276;2023-07-29T08:14:25;98509.75;;;24.25;56.64
78317;BME280;67572;50.930;18.276;2023-07-29T08:17:29;98514.94;;;23.93;58.28
78317;BME280;67572;50.930;18.276;2023-07-29T08:20:33;98526.25;;;24.30;58.34
78317;BME280;67572;50.930;18.276;2023-07-29T08:23:37;98520.25;;;24.41;56.81
78317;BME280;67572;50.930;18.276;2023-07-29T08:26:41;98523.31;;;24.31;57.40
78317;BME280;67572;50.930;18.276;2023-07-29T08:29:44;98511.47;;;24.59;56.11
78317;BME280;67572;50.930;18.276;2023-07-29T08:32:48;98506.38;;;24.96;56.20
78317;BME280;67572;50.930;18.276;2023-07-29T08:35:53;98508.97;;;24.57;55.32
78317;BME280;67572;50.930;18.276;2023-07-29T08:38:57;98503.69;;;24.76;56.90
78317;BME280;67572;50.930;18.276;2023-07-29T08:42:02;98504.25;;;25.24;55.44
78317;BME280;67572;50.930;18.276;2023-07-29T08:45:07;98497.59;;;24.94;56.51
78317;BME280;67572;50.930;18.276;2023-07-29T08:48:12;98490.47;;;24.99;54.85
78317;BME280;67572;50.930;18.276;2023-07-29T08:51:21;98494.25;;;25.11;54.96
78317;BME280;67572;50.930;18.276;2023-07-29T08:54:26;98487.47;;;25.34;54.84
78317;BME280;67572;50.930;18.276;2023-07-29T08:57:30;98484.44;;;25.55;53.15
78317;BME280;67572;50.930;18.276;2023-07-29T09:00:34;98492.16;;;25.58;53.89
78317;BME280;67572;50.930;18.276;2023-07-29T09:03:38;98486.69;;;25.65;52.64
78317;BME280;67572;50.930;18.276;2023-07-29T09:06:44;98483.44;;;25.88;53.17
78317;BME280;67572;50.930;18.276;2023-07-29T09:09:49;98485.50;;;26.24;52.72
78317;BME280;67572;50.930;18.276;2023-07-29T09:12:53;98479.16;;;25.60;52.04
78317;BME280;67572;50.930;18.276;2023-07-29T09:15:57;98472.00;;;25.72;53.04
78317;BME280;67572;50.930;18.276;2023-07-29T09:19:02;98474.44;;;25.87;52.79
78317;BME280;67572;50.930;18.276;2023-07-29T09:22:17;98461.56;;;26.01;52.82
78317;BME280;67572;50.930;18.276;2023-07-29T09:25:24;98467.78;;;26.40;52.72
78317;BME280;67572;50.930;18.276;2023-07-29T09:28:33;98466.41;;;26.24;51.68
78317;BME280;67572;50.930;18.276;2023-07-29T09:31:37;98461.81;;;26.49;49.50
78317;BME280;67572;50.930;18.276;2023-07-29T09:34:41;98468.94;;;26.94;51.32
78317;BME280;67572;50.930;18.276;2023-07-29T09:37:46;98453.75;;;26.61;48.13
78317;BME280;67572;50.930;18.276;2023-07-29T09:40:50;98453.28;;;26.82;49.07
78317;BME280;67572;50.930;18.276;2023-07-29T09:43:59;98449.97;;;26.80;48.17
78317;BME280;67572;50.930;18.276;2023-07-29T09:47:04;98450.47;;;27.14;47.59
78317;BME280;67572;50.930;18.276;2023-07-29T09:50:09;98449.53;;;26.83;47.32
78317;BME280;67572;50.930;18.276;2023-07-29T09:53:17;98446.19;;;26.38;48.01
78317;BME280;67572;50.930;18.276;2023-07-29T09:56:25;98452.63;;;26.19;49.47
78317;BME280;67572;50.930;18.276;2023-07-29T09:59:33;98453.72;;;25.86;50.60
78317;BME280;67572;50.930;18.276;2023-07-29T10:02:39;98453.22;;;26.71;48.83
78317;BME280;67572;50.930;18.276;2023-07-29T10:05:43;98447.59;;;26.66;49.54
78317;BME280;67572;50.930;18.276;2023-07-29T10:08:49;98452.75;;;26.55;48.30
78317;BME280;67572;50.930;18.276;2023-07-29T10:11:54;98453.53;;;25.81;49.67
78317;BME280;67572;50.930;18.276;2023-07-29T10:15:01;98447.75;;;25.96;50.30
78317;BME280;67572;50.930;18.276;2023-07-29T10:18:06;98446.75;;;26.47;48.89
78317;BME280;67572;50.930;18.276;2023-07-29T10:21:11;98448.09;;;26.99;48.13
78317;BME280;67572;50.930;18.276;2023-07-29T10:24:19;98449.00;;;27.78;47.43
78317;BME280;67572;50.930;18.276;2023-07-29T10:27:27;98445.53;;;27.23;48.23
78317;BME280;67572;50.930;18.276;2023-07-29T10:30:31;98442.38;;;26.82;47.87
78317;BME280;67572;50.930;18.276;2023-07-29T10:33:37;98440.38;;;26.28;48.69
78317;BME280;67572;50.930;18.276;2023-07-29T10:36:41;98432.25;;;26.21;49.48
78317;BME280;67572;50.930;18.276;2023-07-29T10:39:54;98436.06;;;27.07;49.08
78317;BME280;67572;50.930;18.276;2023-07-29T10:43:01;98429.56;;;27.08;46.34
78317;BME280;67572;50.930;18.276;2023-07-29T10:46:16;98427.41;;;27.28;44.88
78317;BME280;67572;50.930;18.276;2023-07-29T10:49:23;98426.56;;;26.91;46.03
78317;BME280;67572;50.930;18.276;2023-07-29T10:52:41;98420.56;;;26.46;47.47
78317;BME280;67572;50.930;18.276;2023-07-29T10:55:45;98412.56;;;27.54;45.64
78317;BME280;67572;50.930;18.276;2023-07-29T10:58:48;98414.28;;;28.20;44.71
78317;BME280;67572;50.930;18.276;2023-07-29T11:01:56;98423.34;;;27.79;45.44
78317;BME280;67572;50.930;18.276;2023-07-29T11:05:05;98416.84;;;26.95;46.41
78317;BME280;67572;50.930;18.276;2023-07-29T11:08:22;98415.44;;;26.93;46.60
78317;BME280;67572;50.930;18.276;2023-07-29T11:11:27;98407.00;;;27.31;45.84
78317;BME280;67572;50.930;18.276;2023-07-29T11:14:30;98396.84;;;27.68;44.17
78317;BME280;67572;50.930;18.276;2023-07-29T11:17:34;98391.81;;;28.07;43.16
78317;BME280;67572;50.930;18.276;2023-07-29T11:20:38;98391.97;;;27.70;42.20
78317;BME280;67572;50.930;18.276;2023-07-29T11:23:43;98391.63;;;27.78;42.13
78317;BME280;67572;50.930;18.276;2023-07-29T11:26:47;98389.34;;;28.52;41.39
78317;BME280;67572;50.930;18.276;2023-07-29T11:29:55;98384.56;;;28.94;41.24
78317;BME280;67572;50.930;18.276;2023-07-29T11:33:01;98388.25;;;28.06;43.06
78317;BME280;67572;50.930;18.276;2023-07-29T11:36:05;98378.56;;;29.09;40.23
78317;BME280;67572;50.930;18.276;2023-07-29T11:39:12;98379.13;;;28.47;41.18
78317;BME280;67572;50.930;18.276;2023-07-29T11:42:17;98383.91;;;29.16;42.38
78317;BME280;67572;50.930;18.276;2023-07-29T11:45:23;98372.22;;;28.68;41.88
78317;BME280;67572;50.930;18.276;2023-07-29T11:48:44;98375.56;;;28.59;41.26
78317;BME280;67572;50.930;18.276;2023-07-29T11:51:48;98378.53;;;28.45;40.52
78317;BME280;67572;50.930;18.276;2023-07-29T11:54:53;98367.56;;;28.81;41.74
78317;BME280;67572;50.930;18.276;2023-07-29T11:57:57;98370.88;;;28.83;41.11
78317;BME280;67572;50.930;18.276;2023-07-29T12:01:01;98347.09;;;29.23;40.08
78317;BME280;67572;50.930;18.276;2023-07-29T12:04:05;98349.25;;;29.21;41.25
78317;BME280;67572;50.930;18.276;2023-07-29T12:07:09;98351.13;;;29.78;40.89
78317;BME280;67572;50.930;18.276;2023-07-29T12:10:14;98345.91;;;29.93;39.93
78317;BME280;67572;50.930;18.276;2023-07-29T12:13:18;98341.72;;;29.91;38.38
78317;BME280;67572;50.930;18.276;2023-07-29T12:16:21;98339.97;;;29.68;39.26
78317;BME280;67572;50.930;18.276;2023-07-29T12:19:31;98334.97;;;29.48;41.09
78317;BME280;67572;50.930;18.276;2023-07-29T12:22:34;98336.09;;;29.35;40.28
78317;BME280;67572;50.930;18.276;2023-07-29T12:25:39;98340.06;;;29.73;40.41
78317;BME280;67572;50.930;18.276;2023-07-29T12:28:46;98336.56;;;29.77;38.79
78317;BME280;67572;50.930;18.276;2023-07-29T12:31:57;98329.78;;;28.66;40.67
78317;BME280;67572;50.930;18.276;2023-07-29T12:35:01;98322.88;;;28.16;41.01
78317;BME280;67572;50.930;18.276;2023-07-29T12:38:05;98324.09;;;29.24;39.72
78317;BME280;67572;50.930;18.276;2023-07-29T12:41:10;98327.03;;;29.97;39.47
78317;BME280;67572;50.930;18.276;2023-07-29T12:44:14;98312.16;;;29.59;38.66
78317;BME280;67572;50.930;18.276;2023-07-29T12:47:17;98314.31;;;29.12;40.07
78317;BME280;67572;50.930;18.276;2023-07-29T12:50:21;98300.31;;;28.96;40.21
78317;BME280;67572;50.930;18.276;2023-07-29T12:53:24;98308.56;;;29.42;39.05
78317;BME280;67572;50.930;18.276;2023-07-29T12:56:30;98306.59;;;28.57;41.24
78317;BME280;67572;50.930;18.276;2023-07-29T12:59:34;98313.88;;;28.51;40.39
78317;BME280;67572;50.930;18.276;2023-07-29T13:02:38;98295.31;;;28.93;40.94
78317;BME280;67572;50.930;18.276;2023-07-29T13:05:41;98303.22;;;29.35;41.16
78317;BME280;67572;50.930;18.276;2023-07-29T13:08:47;98298.22;;;30.11;38.26
78317;BME280;67572;50.930;18.276;2023-07-29T13:11:52;98304.31;;;29.63;39.25
78317;BME280;67572;50.930;18.276;2023-07-29T13:14:55;98302.81;;;29.26;40.48
78317;BME280;67572;50.930;18.276;2023-07-29T13:17:59;98309.47;;;28.38;41.53
78317;BME280;67572;50.930;18.276;2023-07-29T13:21:02;98307.19;;;28.59;41.69
78317;BME280;67572;50.930;18.276;2023-07-29T13:24:06;98303.75;;;28.52;41.99
78317;BME280;67572;50.930;18.276;2023-07-29T13:27:11;98295.69;;;28.10;42.52
78317;BME280;67572;50.930;18.276;2023-07-29T13:30:15;98291.50;;;27.96;42.59
78317;BME280;67572;50.930;18.276;2023-07-29T13:33:18;98288.44;;;28.15;41.62
78317;BME280;67572;50.930;18.276;2023-07-29T13:36:21;98287.94;;;28.54;40.99
78317;BME280;67572;50.930;18.276;2023-07-29T13:39:25;98279.97;;;28.29;41.08
78317;BME280;67572;50.930;18.276;2023-07-29T13:42:30;98279.16;;;29.20;40.48
78317;BME280;67572;50.930;18.276;2023-07-29T13:45:34;98270.69;;;29.22;40.98
78317;BME280;67572;50.930;18.276;2023-07-29T13:48:38;98269.81;;;29.05;41.18
78317;BME280;67572;50.930;18.276;2023-07-29T13:51:43;98267.47;;;29.42;41.18
78317;BME280;67572;50.930;18.276;2023-07-29T13:54:47;98264.28;;;29.16;40.46
78317;BME280;67572;50.930;18.276;2023-07-29T13:57:55;98265.72;;;29.19;40.40
78317;BME280;67572;50.930;18.276;2023-07-29T14:00:58;98256.59;;;30.14;40.36
78317;BME280;67572;50.930;18.276;2023-07-29T14:04:02;98255.50;;;30.54;39.01
78317;BME280;67572;50.930;18.276;2023-07-29T14:07:08;98243.03;;;30.24;37.86
78317;BME280;67572;50.930;18.276;2023-07-29T14:10:14;98251.66;;;29.61;41.01
78317;BME280;67572;50.930;18.276;2023-07-29T14:13:19;98243.47;;;28.46;40.88
78317;BME280;67572;50.930;18.276;2023-07-29T14:16:23;98243.00;;;28.26;41.20
78317;BME280;67572;50.930;18.276;2023-07-29T14:19:26;98241.41;;;27.90;42.64
78317;BME280;67572;50.930;18.276;2023-07-29T14:22:30;98232.72;;;28.05;41.93
78317;BME280;67572;50.930;18.276;2023-07-29T14:25:33;98232.13;;;27.91;43.11
78317;BME280;67572;50.930;18.276;2023-07-29T14:28:39;98227.25;;;27.93;43.66
78317;BME280;67572;50.930;18.276;2023-07-29T14:31:42;98224.91;;;27.85;43.96
78317;BME280;67572;50.930;18.276;2023-07-29T14:34:46;98218.31;;;28.33;43.30
78317;BME280;67572;50.930;18.276;2023-07-29T14:37:51;98218.56;;;28.19;43.10
78317;BME280;67572;50.930;18.276;2023-07-29T14:40:54;98209.25;;;28.44;43.73
78317;BME280;67572;50.930;18.276;2023-07-29T14:44:00;98205.56;;;28.38;42.73
78317;BME280;67572;50.930;18.276;2023-07-29T14:47:03;98212.38;;;28.36;43.90
78317;BME280;67572;50.930;18.276;2023-07-29T14:50:08;98208.34;;;28.15;43.13
78317;BME280;67572;50.930;18.276;2023-07-29T14:53:12;98212.66;;;27.87;44.49
78317;BME280;67572;50.930;18.276;2023-07-29T14:56:15;98213.72;;;27.98;43.29
78317;BME280;67572;50.930;18.276;2023-07-29T14:59:23;98213.22;;;28.01;45.08
78317;BME280;67572;50.930;18.276;2023-07-29T15:02:27;98217.84;;;27.42;46.66
78317;BME280;67572;50.930;18.276;2023-07-29T15:05:30;98221.25;;;27.26;46.35
78317;BME280;67572;50.930;18.276;2023-07-29T15:08:34;98226.97;;;26.64;48.28
78317;BME280;67572;50.930;18.276;2023-07-29T15:11:37;98222.13;;;26.29;49.38
78317;BME280;67572;50.930;18.276;2023-07-29T15:14:42;98228.19;;;26.50;49.25
78317;BME280;67572;50.930;18.276;2023-07-29T15:17:46;98228.34;;;26.55;49.34
78317;BME280;67572;50.930;18.276;2023-07-29T15:20:49;98218.84;;;26.76;48.94
78317;BME280;67572;50.930;18.276;2023-07-29T15:23:53;98227.28;;;26.86;49.12
78317;BME280;67572;50.930;18.276;2023-07-29T15:26:56;98219.59;;;26.83;48.64
78317;BME280;67572;50.930;18.276;2023-07-29T15:30:02;98216.78;;;27.01;48.49
78317;BME280;67572;50.930;18.276;2023-07-29T15:33:06;98213.00;;;26.72;49.78
78317;BME280;67572;50.930;18.276;2023-07-29T15:36:09;98211.25;;;26.78;49.18
78317;BME280;67572;50.930;18.276;2023-07-29T15:39:13;98204.59;;;26.74;48.24
78317;BME280;67572;50.930;18.276;2023-07-29T15:42:17;98194.97;;;26.41;47.37
78317;BME280;67572;50.930;18.276;2023-07-29T15:45:22;98200.34;;;26.48;46.53
78317;BME280;67572;50.930;18.276;2023-07-29T15:48:26;98199.34;;;26.61;45.97
78317;BME280;67572;50.930;18.276;2023-07-29T15:51:29;98195.41;;;26.38;46.27
78317;BME280;67572;50.930;18.276;2023-07-29T15:54:33;98189.88;;;26.45;46.46
78317;BME280;67572;50.930;18.276;2023-07-29T15:57:36;98195.25;;;26.51;47.64
78317;BME280;67572;50.930;18.276;2023-07-29T16:00:41;98198.03;;;26.63;48.28
78317;BME280;67572;50.930;18.276;2023-07-29T16:03:45;98191.56;;;26.46;49.61
78317;BME280;67572;50.930;18.276;2023-07-29T16:06:49;98182.41;;;26.40;50.10